Time;durP1;ratioP1;P1;durP2;ratioP2;P2;SDS_P1;SDS_P2;PMS_P1;PMS_P2;Temp;Humidity;BMP_temperature;BMP_pressure;BME280_temperature;BME280_humidity;BME280_pressure;Samples;Min_cycle;Max_cycle;Signal;HPM_P1;HPM_P2
2023/11/06 00:02:30;;;;;;;8.25;1.92;;;;;;;11.55;100.00;99468.47;5261143;28;20029;-72
2023/11/06 00:05:04;;;;;;;9.10;1.65;;;;;;;11.60;100.00;99474.88;5250719;28;20071;-72
2023/11/06 00:07:34;;;;;;;10.65;1.70;;;;;;;11.61;100.00;99478.41;5248008;28;20130;-72
2023/11/06 00:10:08;;;;;;;10.43;2.13;;;;;;;11.66;100.00;99481.28;5254745;28;20108;-72
2023/11/06 00:12:39;;;;;;;11.23;1.73;;;;;;;11.68;100.00;99476.53;5255382;28;20031;-72
2023/11/06 00:15:13;;;;;;;6.03;1.45;;;;;;;11.71;100.00;99484.19;5263319;28;20094;-72
2023/11/06 00:17:44;;;;;;;11.32;2.25;;;;;;;11.75;100.00;99488.13;5260887;28;20024;-72
2023/11/06 00:20:16;;;;;;;11.48;1.60;;;;;;;11.64;100.00;99494.09;5250493;28;20085;-72
2023/11/06 00:22:47;;;;;;;6.22;1.65;;;;;;;11.64;100.00;99500.28;5252391;28;20028;-72
2023/11/06 00:25:18;;;;;;;6.45;1.30;;;;;;;11.60;100.00;99499.06;5244478;28;20020;-72
2023/11/06 00:27:48;;;;;;;3.78;1.33;;;;;;;11.67;100.00;99483.75;5251565;28;20362;-72
2023/11/06 00:30:19;;;;;;;9.93;1.48;;;;;;;11.69;100.00;99488.91;5257845;28;20064;-72
2023/11/06 00:32:50;;;;;;;10.80;1.63;;;;;;;11.68;100.00;99489.97;5257564;28;20080;-72
2023/11/06 00:35:21;;;;;;;8.60;1.30;;;;;;;11.54;100.00;99486.44;5250448;28;20382;-72
2023/11/06 00:37:52;;;;;;;5.03;2.55;;;;;;;11.52;100.00;99499.25;5257546;28;20023;-72
2023/11/06 00:40:22;;;;;;;11.07;2.42;;;;;;;11.62;100.00;99496.97;5256429;28;20028;-72
2023/11/06 00:42:53;;;;;;;7.22;1.30;;;;;;;11.65;100.00;99507.34;5249888;28;20105;-72
2023/11/06 00:45:24;;;;;;;7.05;1.70;;;;;;;11.76;100.00;99505.88;5251967;28;20025;-72
2023/11/06 00:47:55;;;;;;;7.00;1.23;;;;;;;11.64;100.00;99504.81;5254900;28;20055;-72
2023/11/06 00:50:25;;;;;;;8.00;1.50;;;;;;;11.68;100.00;99504.22;5251272;28;20020;-72
2023/11/06 00:52:58;;;;;;;5.75;1.50;;;;;;;11.61;100.00;99503.41;5251555;28;20470;-72
2023/11/06 00:55:28;;;;;;;8.07;1.42;;;;;;;11.57;100.00;99520.94;5250834;28;20378;-72
2023/11/06 00:57:59;;;;;;;5.55;0.80;;;;;;;11.54;100.00;99524.03;5255971;28;20020;-72
2023/11/06 01:00:29;;;;;;;5.13;1.20;;;;;;;11.54;100.00;99513.28;5255796;28;20021;-72
2023/11/06 01:03:00;;;;;;;6.97;0.90;;;;;;;11.62;100.00;99529.22;5249674;28;20070;-72
2023/11/06 01:05:31;;;;;;;10.75;1.52;;;;;;;11.58;100.00;99536.03;5259020;28;20032;-72
2023/11/06 01:08:04;;;;;;;13.75;2.17;;;;;;;11.51;100.00;99537.88;5251469;28;20522;-72
2023/11/06 01:10:35;;;;;;;10.88;1.35;;;;;;;11.48;100.00;99538.28;5255588;28;20481;-72
2023/11/06 01:13:05;;;;;;;11.27;1.20;;;;;;;11.41;100.00;99542.81;5260063;28;20035;-72
2023/11/06 01:15:36;;;;;;;5.88;1.42;;;;;;;11.48;100.00;99542.81;5246592;28;20092;-72
2023/11/06 01:18:07;;;;;;;5.93;1.85;;;;;;;11.48;100.00;99542.81;5256575;28;20031;-72
2023/11/06 01:20:38;;;;;;;4.32;1.58;;;;;;;11.51;100.00;99550.50;5256504;28;20494;-72
2023/11/06 01:23:09;;;;;;;7.15;1.42;;;;;;;11.52;100.00;99550.28;5255993;28;20064;-72
2023/11/06 01:25:42;;;;;;;9.80;2.13;;;;;;;11.39;100.00;99569.03;5262507;28;20123;-72
2023/11/06 01:28:16;;;;;;;5.40;0.98;;;;;;;11.35;100.00;99574.00;5264006;28;20488;-72
2023/11/06 01:30:50;;;;;;;3.90;1.10;;;;;;;11.36;100.00;99577.50;5259962;28;20082;-72
2023/11/06 01:33:21;;;;;;;7.25;1.30;;;;;;;11.23;100.00;99586.34;5265830;28;20059;-72
2023/11/06 01:35:54;;;;;;;3.17;0.80;;;;;;;11.05;100.00;99594.97;5264658;28;20044;-72
2023/11/06 01:38:30;;;;;;;6.45;1.23;;;;;;;11.25;100.00;99597.72;5264852;28;20031;-72
2023/11/06 01:41:04;;;;;;;4.35;1.33;;;;;;;11.19;100.00;99613.78;5263276;28;20374;-72
2023/11/06 01:43:38;;;;;;;4.70;1.48;;;;;;;11.14;100.00;99611.69;5260441;28;20550;-72
2023/11/06 01:46:11;;;;;;;6.55;1.60;;;;;;;11.12;100.00;99621.81;5262749;28;20657;-72
2023/11/06 01:48:47;;;;;;;7.45;1.23;;;;;;;11.05;100.00;99624.47;5260458;28;20060;-72
2023/11/06 01:51:19;;;;;;;8.52;1.65;;;;;;;11.20;100.00;99627.03;5263839;28;20588;-71
2023/11/06 01:53:50;;;;;;;10.45;1.65;;;;;;;11.19;100.00;99625.34;5264850;28;20494;-71
2023/11/06 01:56:28;;;;;;;8.57;1.50;;;;;;;11.24;100.00;99628.25;5258406;28;20115;-71
2023/11/06 01:59:03;;;;;;;8.73;1.70;;;;;;;11.26;100.00;99626.22;5261223;28;20481;-71
2023/11/06 02:01:41;;;;;;;11.52;1.63;;;;;;;11.26;100.00;99628.09;5262539;28;20032;-71
2023/11/06 02:04:14;;;;;;;7.85;1.52;;;;;;;11.23;100.00;99625.78;5259522;28;20089;-72
2023/11/06 02:06:47;;;;;;;5.07;1.58;;;;;;;11.34;100.00;99623.34;5265016;28;20040;-72
2023/11/06 02:09:18;;;;;;;8.73;1.83;;;;;;;11.41;100.00;99628.75;5263611;28;20690;-72
2023/11/06 02:11:48;;;;;;;7.80;1.80;;;;;;;11.44;100.00;99628.34;5257017;28;20028;-73
2023/11/06 02:14:21;;;;;;;8.63;2.17;;;;;;;11.34;100.00;99609.91;5254854;28;20052;-72
2023/11/06 02:16:52;;;;;;;6.03;1.58;;;;;;;11.35;100.00;99621.50;5252845;28;20066;-73
2023/11/06 02:19:23;;;;;;;14.50;3.85;;;;;;;11.34;100.00;99617.97;5256273;28;20020;-72
2023/11/06 02:22:11;;;;;;;6.63;1.70;;;;;;;11.49;100.00;99647.34;5249347;28;20534;-72
2023/11/06 02:24:42;;;;;;;8.35;2.05;;;;;;;11.53;100.00;99651.31;5250355;28;20058;-72
2023/11/06 02:27:12;;;;;;;14.80;1.70;;;;;;;11.44;100.00;99652.50;5258442;28;20024;-73
2023/11/06 02:30:01;;;;;;;7.20;1.00;;;;;;;11.31;100.00;99657.84;5253024;28;20022;-72
2023/11/06 02:32:32;;;;;;;7.38;1.30;;;;;;;11.35;100.00;99651.88;5259856;28;20032;-74
2023/11/06 02:35:20;;;;;;;8.88;1.75;;;;;;;11.32;100.00;99649.56;5253103;28;20024;-72
2023/11/06 02:37:51;;;;;;;8.05;1.67;;;;;;;11.26;100.00;99650.38;5253934;28;20020;-72
2023/11/06 02:40:22;;;;;;;4.85;1.33;;;;;;;11.33;100.00;99666.50;5251814;28;20028;-72
2023/11/06 02:42:52;;;;;;;5.53;1.02;;;;;;;11.20;100.00;99659.25;5253098;28;20087;-73
2023/11/06 02:45:23;;;;;;;5.85;1.25;;;;;;;11.24;100.00;99665.84;5253150;28;20028;-73
2023/11/06 02:47:53;;;;;;;8.05;1.75;;;;;;;11.29;100.00;99673.31;5252767;28;20052;-72
2023/11/06 02:50:26;;;;;;;9.70;1.52;;;;;;;11.17;100.00;99674.91;5255607;28;20032;-73
2023/11/06 02:52:58;;;;;;;8.73;1.35;;;;;;;11.29;100.00;99671.44;5256382;28;20048;-74
2023/11/06 02:55:29;;;;;;;8.90;1.65;;;;;;;11.34;100.00;99670.84;5251299;28;20048;-72
2023/11/06 02:58:00;;;;;;;8.65;1.23;;;;;;;11.38;100.00;99680.16;5256897;28;20024;-73
2023/11/06 03:00:31;;;;;;;5.95;1.42;;;;;;;11.40;100.00;99675.44;5254069;28;20119;-73
2023/11/06 03:03:01;;;;;;;6.25;1.73;;;;;;;11.22;100.00;99683.19;5253280;28;20776;-73
2023/11/06 03:05:32;;;;;;;13.95;1.40;;;;;;;11.38;100.00;99681.00;5257003;28;20093;-72
2023/11/06 03:08:03;;;;;;;6.43;1.27;;;;;;;11.37;100.00;99690.09;5253094;28;20024;-72
2023/11/06 03:10:33;;;;;;;5.55;1.30;;;;;;;11.26;100.00;99679.09;5259883;28;20035;-72
2023/11/06 03:13:07;;;;;;;7.47;1.25;;;;;;;11.30;100.00;99701.84;5256907;28;20103;-73
2023/11/06 03:15:37;;;;;;;5.07;1.83;;;;;;;11.30;100.00;99697.28;5256415;28;20024;-72
2023/11/06 03:18:08;;;;;;;7.03;0.90;;;;;;;11.31;100.00;99698.13;5252167;28;20478;-73
2023/11/06 03:20:39;;;;;;;6.07;1.15;;;;;;;11.18;100.00;99700.72;5255086;28;20115;-72
2023/11/06 03:23:11;;;;;;;6.65;1.13;;;;;;;11.23;100.00;99707.16;5254569;28;20024;-72
2023/11/06 03:25:41;;;;;;;6.55;1.38;;;;;;;11.24;100.00;99716.84;5255394;28;20439;-72
2023/11/06 03:28:12;;;;;;;8.68;1.20;;;;;;;11.26;100.00;99714.81;5254297;28;20015;-72
2023/11/06 03:30:44;;;;;;;9.48;1.73;;;;;;;11.26;100.00;99736.28;5259145;28;20024;-72
2023/11/06 03:33:15;;;;;;;8.13;1.25;;;;;;;11.28;100.00;99736.09;5256747;28;20062;-72
2023/11/06 03:35:45;;;;;;;7.97;1.30;;;;;;;11.19;100.00;99727.34;5252394;28;20052;-72
2023/11/06 03:38:16;;;;;;;8.23;1.70;;;;;;;11.09;100.00;99730.41;5247645;28;20446;-74
2023/11/06 03:40:47;;;;;;;6.57;1.55;;;;;;;11.18;100.00;99731.06;5252741;28;20033;-72
2023/11/06 03:43:17;;;;;;;8.32;0.98;;;;;;;11.17;100.00;99736.66;5247100;28;20024;-72
2023/11/06 03:45:47;;;;;;;6.57;1.27;;;;;;;11.23;100.00;99746.59;5252244;28;20028;-72
2023/11/06 03:48:18;;;;;;;9.05;2.35;;;;;;;11.14;100.00;99741.41;5256661;28;20026;-73
2023/11/06 03:50:48;;;;;;;8.68;1.38;;;;;;;11.22;100.00;99739.56;5253908;28;20452;-72
2023/11/06 03:53:19;;;;;;;8.18;1.50;;;;;;;11.33;100.00;99739.00;5249012;28;20481;-73
2023/11/06 03:55:50;;;;;;;11.68;1.50;;;;;;;11.35;100.00;99747.72;5255925;28;20107;-72
2023/11/06 03:58:20;;;;;;;10.85;1.80;;;;;;;11.23;100.00;99743.91;5251518;28;20606;-73
2023/11/06 04:00:51;;;;;;;9.75;1.70;;;;;;;11.27;100.00;99750.53;5257000;28;20523;-72
2023/11/06 04:03:21;;;;;;;12.18;1.80;;;;;;;11.20;100.00;99750.50;5247744;28;20036;-72
2023/11/06 04:05:52;;;;;;;11.95;1.77;;;;;;;11.18;100.00;99746.34;5251108;28;20522;-72
2023/11/06 04:08:23;;;;;;;12.30;1.83;;;;;;;11.06;100.00;99743.41;5262753;28;20024;-72
2023/11/06 04:10:53;;;;;;;18.42;2.72;;;;;;;11.04;100.00;99735.50;5251297;28;20028;-72
2023/11/06 04:13:24;;;;;;;9.80;2.65;;;;;;;11.07;100.00;99751.25;5251554;28;20032;-72
2023/11/06 04:15:54;;;;;;;21.35;2.42;;;;;;;11.16;100.00;99743.88;5242281;28;20558;-74
2023/11/06 04:18:25;;;;;;;18.85;3.10;;;;;;;11.18;100.00;99757.09;5254133;28;20095;-72
2023/11/06 04:20:56;;;;;;;15.02;2.40;;;;;;;11.04;100.00;99759.66;5254417;28;20135;-72
2023/11/06 04:23:28;;;;;;;20.92;2.75;;;;;;;11.09;100.00;99759.94;5251223;28;20040;-72
2023/11/06 04:25:58;;;;;;;24.27;2.35;;;;;;;11.13;100.00;99777.28;5253293;28;20024;-72
2023/11/06 04:28:29;;;;;;;20.33;2.83;;;;;;;11.13;100.00;99779.97;5262046;28;20366;-73
2023/11/06 04:30:59;;;;;;;24.35;2.47;;;;;;;11.09;100.00;99780.56;5263969;28;20032;-72
2023/11/06 04:33:30;;;;;;;21.90;2.08;;;;;;;11.22;100.00;99785.22;5258824;28;20035;-72
2023/11/06 04:36:01;;;;;;;21.00;3.40;;;;;;;11.10;100.00;99790.28;5251530;28;20048;-72
2023/11/06 04:38:31;;;;;;;25.08;2.97;;;;;;;11.10;100.00;99799.19;5260235;28;20031;-73
2023/11/06 04:41:02;;;;;;;14.30;2.40;;;;;;;11.24;100.00;99799.25;5262239;28;20020;-73
2023/11/06 04:43:32;;;;;;;11.40;2.20;;;;;;;11.19;100.00;99802.53;5259684;28;20051;-73
2023/11/06 04:46:04;;;;;;;16.15;2.65;;;;;;;11.27;100.00;99797.00;5250958;28;20019;-72
2023/11/06 04:48:34;;;;;;;14.32;2.63;;;;;;;11.31;100.00;99803.66;5258684;28;20056;-73
2023/11/06 04:51:05;;;;;;;20.30;2.97;;;;;;;11.19;100.00;99802.53;5258160;28;20483;-72
2023/11/06 04:53:37;;;;;;;19.83;3.17;;;;;;;11.25;100.00;99806.31;5255552;28;20024;-72
2023/11/06 04:56:08;;;;;;;15.73;2.53;;;;;;;11.32;100.00;99804.47;5258315;28;20028;-73
2023/11/06 04:58:39;;;;;;;24.40;2.40;;;;;;;11.26;100.00;99813.31;5255729;28;20047;-72
2023/11/06 05:01:09;;;;;;;15.65;2.67;;;;;;;11.09;100.00;99802.88;5259043;28;20481;-73
2023/11/06 05:03:40;;;;;;;18.77;3.97;;;;;;;11.24;100.00;99808.13;5259953;28;20071;-72
2023/11/06 05:06:10;;;;;;;26.92;2.72;;;;;;;11.14;100.00;99811.19;5255150;28;20028;-72
2023/11/06 05:08:41;;;;;;;20.67;2.50;;;;;;;11.19;100.00;99810.56;5256416;28;20024;-72
2023/11/06 05:11:12;;;;;;;23.42;3.85;;;;;;;11.25;100.00;99812.50;5255435;28;20032;-72
2023/11/06 05:13:44;;;;;;;16.13;1.95;;;;;;;11.25;100.00;99817.88;5262031;28;20035;-72
2023/11/06 05:16:14;;;;;;;16.75;3.67;;;;;;;11.25;100.00;99822.41;5251555;28;20024;-74
2023/11/06 05:18:45;;;;;;;25.85;3.13;;;;;;;11.14;100.00;99824.59;5258220;28;20027;-75
2023/11/06 05:21:23;;;;;;;21.67;3.70;;;;;;;11.11;100.00;99821.47;5258168;28;20025;-74
2023/11/06 05:23:54;;;;;;;14.85;2.67;;;;;;;11.13;100.00;99825.59;5259871;28;20070;-72
2023/11/06 05:26:25;;;;;;;17.23;2.22;;;;;;;11.20;100.00;99843.66;5255719;28;20052;-73
2023/11/06 05:28:55;;;;;;;14.85;2.50;;;;;;;11.20;100.00;99846.34;5256520;28;20405;-72
2023/11/06 05:31:26;;;;;;;19.95;2.70;;;;;;;11.27;100.00;99852.56;5253504;28;20058;-72
2023/11/06 05:33:58;;;;;;;21.58;2.67;;;;;;;11.10;100.00;99852.84;5259513;28;22002;-72
2023/11/06 05:36:29;;;;;;;19.75;2.50;;;;;;;11.02;100.00;99850.31;5255838;28;20020;-72
2023/11/06 05:38:59;;;;;;;15.15;2.60;;;;;;;11.07;100.00;99855.91;5247872;28;20035;-72
2023/11/06 05:41:30;;;;;;;11.75;2.35;;;;;;;11.00;100.00;99860.41;5252791;28;20028;-72
2023/11/06 05:44:00;;;;;;;19.25;2.15;;;;;;;11.00;100.00;99863.09;5255136;28;20093;-73
2023/11/06 05:46:31;;;;;;;17.17;3.33;;;;;;;11.04;100.00;99866.19;5257372;28;20024;-72
2023/11/06 05:49:01;;;;;;;22.35;3.75;;;;;;;10.97;100.00;99871.53;5258610;28;20020;-73
2023/11/06 05:51:34;;;;;;;19.35;2.70;;;;;;;11.02;100.00;99866.41;5259011;28;20029;-72
2023/11/06 05:54:05;;;;;;;14.40;2.45;;;;;;;10.95;100.00;99865.53;5248249;28;20031;-72
2023/11/06 05:56:35;;;;;;;19.10;3.17;;;;;;;11.11;100.00;99881.34;5255750;28;20497;-72
2023/11/06 05:59:06;;;;;;;18.20;2.97;;;;;;;10.99;100.00;99877.50;5261459;28;20027;-72
2023/11/06 06:01:36;;;;;;;24.95;2.13;;;;;;;11.00;100.00;99873.81;5256126;28;20525;-72
2023/11/06 06:04:07;;;;;;;13.82;2.40;;;;;;;10.93;100.00;99877.47;5261812;28;20028;-74
2023/11/06 06:06:38;;;;;;;16.48;2.47;;;;;;;11.01;100.00;99880.03;5252853;28;20024;-72
2023/11/06 06:09:08;;;;;;;19.55;2.50;;;;;;;10.91;100.00;99888.41;5250903;28;20032;-73
2023/11/06 06:11:39;;;;;;;17.08;2.85;;;;;;;10.84;100.00;99890.16;5250021;28;20378;-72
2023/11/06 06:14:11;;;;;;;14.25;2.38;;;;;;;10.80;100.00;99888.91;5253144;28;20036;-72
2023/11/06 06:16:41;;;;;;;18.55;2.78;;;;;;;10.91;100.00;99892.94;5255759;28;20036;-73
2023/11/06 06:19:12;;;;;;;13.60;2.70;;;;;;;10.91;100.00;99893.75;5251322;28;20064;-72
2023/11/06 06:21:42;;;;;;;18.38;2.72;;;;;;;10.92;100.00;99892.72;5250998;28;20102;-73
2023/11/06 06:24:13;;;;;;;12.82;2.25;;;;;;;11.05;100.00;99894.72;5262114;28;20039;-72
2023/11/06 06:26:44;;;;;;;17.13;2.58;;;;;;;10.88;100.00;99897.63;5251632;28;20043;-72
2023/11/06 06:29:14;;;;;;;23.40;3.63;;;;;;;10.95;100.00;99903.09;5247087;28;20032;-72
2023/11/06 06:31:45;;;;;;;15.35;1.85;;;;;;;10.92;100.00;99908.00;5251607;28;20025;-72
2023/11/06 06:34:17;;;;;;;16.20;2.58;;;;;;;10.96;100.00;99894.03;5259860;28;20077;-73
2023/11/06 06:36:47;;;;;;;19.50;2.20;;;;;;;10.91;100.00;99904.50;5253890;28;20111;-73
2023/11/06 06:39:18;;;;;;;23.52;2.60;;;;;;;10.98;100.00;99907.22;5257721;28;20172;-72
2023/11/06 06:41:49;;;;;;;19.55;2.25;;;;;;;10.93;100.00;99904.28;5252365;28;20031;-72
2023/11/06 06:44:20;;;;;;;14.57;2.17;;;;;;;10.93;100.00;99905.13;5254131;28;20032;-72
2023/11/06 06:46:50;;;;;;;21.65;3.00;;;;;;;11.05;100.00;99908.97;5250889;28;20489;-72
2023/11/06 06:49:21;;;;;;;18.15;2.83;;;;;;;10.94;100.00;99911.31;5255505;28;20036;-72
2023/11/06 06:51:53;;;;;;;15.73;2.58;;;;;;;10.85;100.00;99907.94;5248247;28;20028;-72
2023/11/06 06:54:24;;;;;;;23.13;2.83;;;;;;;10.81;100.00;99907.50;5251558;28;20020;-72
2023/11/06 06:56:55;;;;;;;17.45;2.63;;;;;;;10.77;100.00;99911.56;5250446;28;20031;-72
2023/11/06 06:59:27;;;;;;;17.52;3.05;;;;;;;10.83;100.00;99921.53;5261276;28;20055;-73
2023/11/06 07:01:57;;;;;;;23.45;2.13;;;;;;;10.91;100.00;99917.91;5241063;28;20732;-72
2023/11/06 07:04:28;;;;;;;15.32;2.63;;;;;;;10.95;100.00;99921.88;5249528;28;20025;-74
2023/11/06 07:06:59;;;;;;;14.70;2.53;;;;;;;11.04;100.00;99922.56;5255963;28;20028;-72
2023/11/06 07:09:31;;;;;;;12.68;2.13;;;;;;;10.85;100.00;99919.50;5251781;28;20036;-73
2023/11/06 07:12:05;;;;;;;22.70;3.75;;;;;;;10.98;100.00;99934.06;5253964;28;20100;-72
2023/11/06 07:14:37;;;;;;;14.35;2.63;;;;;;;11.02;100.00;99930.00;5236233;28;20039;-72
2023/11/06 07:17:08;;;;;;;12.82;2.42;;;;;;;11.02;100.00;99935.34;5248669;28;20057;-72
2023/11/06 07:19:39;;;;;;;14.80;2.80;;;;;;;10.98;100.00;99937.59;5259614;28;20028;-72
2023/11/06 07:22:10;;;;;;;18.23;2.53;;;;;;;11.08;100.00;99931.91;5253093;28;20031;-73
2023/11/06 07:24:40;;;;;;;13.45;2.17;;;;;;;11.14;100.00;99941.88;5252721;28;20032;-73
2023/11/06 07:27:11;;;;;;;14.48;2.03;;;;;;;11.25;100.00;99946.75;5252916;28;20407;-72
2023/11/06 07:29:41;;;;;;;20.85;3.13;;;;;;;11.38;100.00;99946.00;5256175;28;20023;-72
2023/11/06 07:32:12;;;;;;;16.13;2.60;;;;;;;11.38;100.00;99954.06;5252447;28;20058;-73
2023/11/06 07:34:42;;;;;;;20.40;4.93;;;;;;;11.28;100.00;99948.19;5255563;28;20504;-72
2023/11/06 07:37:13;;;;;;;16.95;3.78;;;;;;;11.45;100.00;99951.47;5258964;28;20036;-72
2023/11/06 07:39:43;;;;;;;14.85;2.60;;;;;;;11.76;100.00;99951.09;5257448;28;20020;-72
2023/11/06 07:42:14;;;;;;;14.23;3.63;;;;;;;11.71;100.00;99951.66;5254629;28;20029;-72
2023/11/06 07:44:44;;;;;;;13.43;2.33;;;;;;;11.75;100.00;99952.13;5257869;28;20081;-74
2023/11/06 07:47:15;;;;;;;18.58;2.92;;;;;;;11.90;100.00;99960.94;5256447;28;20025;-74
2023/11/06 07:49:46;;;;;;;16.98;2.97;;;;;;;12.24;100.00;99949.34;5255300;28;20366;-72
2023/11/06 07:52:17;;;;;;;13.55;2.53;;;;;;;12.33;100.00;99955.38;5258428;28;20427;-73
2023/11/06 07:54:47;;;;;;;16.95;2.25;;;;;;;12.65;100.00;99959.25;5270892;28;20032;-74
2023/11/06 07:57:18;;;;;;;14.27;3.10;;;;;;;12.63;100.00;99959.44;5267773;28;20029;-74
2023/11/06 07:59:49;;;;;;;21.65;2.95;;;;;;;13.02;100.00;99959.78;5262273;28;20043;-74
2023/11/06 08:02:19;;;;;;;16.90;2.88;;;;;;;12.91;100.00;99958.53;5260619;28;20094;-74
2023/11/06 08:04:50;;;;;;;13.45;2.78;;;;;;;12.84;100.00;99966.56;5255295;28;20085;-74
2023/11/06 08:07:21;;;;;;;16.85;2.28;;;;;;;12.88;100.00;99964.31;5252330;28;20094;-72
2023/11/06 08:09:51;;;;;;;21.17;2.92;;;;;;;13.05;100.00;99971.00;5257495;28;20056;-74
2023/11/06 08:12:22;;;;;;;14.52;2.70;;;;;;;13.23;100.00;99961.50;5265349;28;20020;-72
2023/11/06 08:14:52;;;;;;;13.88;2.17;;;;;;;13.18;100.00;99954.00;5243234;28;20034;-74
2023/11/06 08:17:23;;;;;;;17.77;3.38;;;;;;;13.19;100.00;99959.19;5251081;28;20032;-72
2023/11/06 08:19:53;;;;;;;20.33;3.53;;;;;;;13.41;100.00;99962.56;5260442;28;20116;-74
2023/11/06 08:22:24;;;;;;;16.95;3.53;;;;;;;13.41;100.00;99970.66;5263732;28;20477;-74
2023/11/06 08:24:55;;;;;;;18.75;3.00;;;;;;;13.51;100.00;99972.94;5255452;28;20097;-73
2023/11/06 08:27:25;;;;;;;13.98;2.55;;;;;;;13.56;100.00;99972.34;5257454;28;20020;-72
2023/11/06 08:29:56;;;;;;;17.10;2.50;;;;;;;13.63;100.00;99968.59;5264246;28;20031;-73
2023/11/06 08:32:26;;;;;;;13.40;2.55;;;;;;;13.90;100.00;99968.56;5263799;28;20038;-72
2023/11/06 08:34:57;;;;;;;13.05;2.50;;;;;;;13.62;100.00;99966.09;5265879;28;20024;-74
2023/11/06 08:37:27;;;;;;;14.57;2.92;;;;;;;13.85;100.00;99971.88;5264342;28;20024;-72
2023/11/06 08:39:57;;;;;;;15.27;2.65;;;;;;;14.15;100.00;99977.66;5264440;28;20030;-73
2023/11/06 08:42:28;;;;;;;12.13;2.40;;;;;;;13.87;100.00;99979.78;5263565;28;20730;-74
2023/11/06 08:44:59;;;;;;;22.42;3.05;;;;;;;13.97;100.00;99989.09;5263964;28;20048;-73
2023/11/06 08:47:29;;;;;;;16.58;3.17;;;;;;;14.16;100.00;99982.03;5264794;28;20028;-72
2023/11/06 08:50:00;;;;;;;13.00;2.25;;;;;;;14.47;100.00;99983.19;5264702;28;20038;-74
2023/11/06 08:52:30;;;;;;;16.52;3.03;;;;;;;14.53;100.00;99995.03;5267860;28;20031;-74
2023/11/06 08:55:01;;;;;;;22.63;3.05;;;;;;;13.86;100.00;99997.00;5265003;28;20118;-72
2023/11/06 08:57:32;;;;;;;20.80;3.50;;;;;;;14.36;100.00;99992.78;5264568;28;20050;-73
2023/11/06 09:00:05;;;;;;;13.52;2.75;;;;;;;14.21;100.00;100000.28;5263858;28;20036;-74
2023/11/06 09:02:36;;;;;;;11.65;2.40;;;;;;;14.01;100.00;99997.63;5265399;28;20542;-72
2023/11/06 09:05:08;;;;;;;15.40;2.83;;;;;;;13.61;100.00;100004.88;5262941;28;20042;-72
2023/11/06 09:07:38;;;;;;;11.10;2.55;;;;;;;13.44;100.00;100017.91;5261485;28;20024;-72
2023/11/06 09:10:09;;;;;;;14.25;2.80;;;;;;;13.67;100.00;100012.13;5262099;28;20396;-72
2023/11/06 09:12:40;;;;;;;13.93;2.70;;;;;;;13.33;100.00;100015.81;5251695;28;20491;-72
2023/11/06 09:15:10;;;;;;;14.00;2.60;;;;;;;13.12;100.00;100009.53;5262019;28;20024;-72
2023/11/06 09:17:41;;;;;;;13.38;2.30;;;;;;;13.63;100.00;100018.97;5264444;28;20531;-72
2023/11/06 09:20:12;;;;;;;16.58;2.78;;;;;;;13.21;100.00;100019.13;5264656;28;20024;-72
2023/11/06 09:22:42;;;;;;;14.55;2.95;;;;;;;13.36;100.00;100027.03;5264188;28;20028;-72
2023/11/06 09:25:13;;;;;;;13.77;2.35;;;;;;;13.42;100.00;100030.75;5262579;28;20020;-73
2023/11/06 09:27:44;;;;;;;19.13;3.28;;;;;;;13.20;100.00;100019.25;5261667;28;20035;-72
2023/11/06 09:30:15;;;;;;;18.48;2.67;;;;;;;13.32;100.00;100017.69;5252995;28;20056;-72
2023/11/06 09:32:45;;;;;;;19.88;3.38;;;;;;;13.58;100.00;100019.59;5235259;28;20024;-72
2023/11/06 09:35:15;;;;;;;12.70;3.15;;;;;;;13.71;100.00;100025.00;5233736;28;20044;-72
2023/11/06 09:37:46;;;;;;;14.27;2.60;;;;;;;13.41;100.00;100021.84;5235682;28;20501;-72
2023/11/06 09:40:21;;;;;;;13.02;2.63;;;;;;;13.75;100.00;100017.31;5235702;28;20048;-72
2023/11/06 09:42:51;;;;;;;13.07;2.38;;;;;;;13.87;100.00;100023.75;5243100;28;20108;-72
2023/11/06 09:45:22;;;;;;;18.23;2.35;;;;;;;14.23;100.00;100026.00;5260439;28;20023;-72
2023/11/06 09:47:59;;;;;;;21.70;2.90;;;;;;;14.19;100.00;100029.31;5259086;28;20389;-72
2023/11/06 09:50:30;;;;;;;15.00;2.95;;;;;;;14.38;100.00;100036.56;5258581;28;20043;-72
2023/11/06 09:53:01;;;;;;;14.93;2.55;;;;;;;14.31;100.00;100034.88;5252521;28;20020;-72
2023/11/06 09:55:33;;;;;;;8.23;2.20;;;;;;;14.31;100.00;100034.88;5261795;28;20024;-72
2023/11/06 09:58:06;;;;;;;9.32;2.47;;;;;;;14.11;100.00;100027.69;5253741;28;20710;-72
2023/11/06 10:00:36;;;;;;;15.77;2.70;;;;;;;14.05;100.00;100031.19;5261147;28;20032;-72
2023/11/06 10:03:07;;;;;;;16.73;2.97;;;;;;;14.28;100.00;100041.56;5260990;28;20046;-72
2023/11/06 10:05:37;;;;;;;23.35;2.92;;;;;;;14.10;100.00;100041.34;5253541;28;20064;-74
2023/11/06 10:08:08;;;;;;;13.93;3.35;;;;;;;14.00;100.00;100042.59;5257314;28;20433;-74
2023/11/06 10:10:40;;;;;;;15.60;2.58;;;;;;;14.05;100.00;100051.94;5252023;28;20039;-73
2023/11/06 10:13:13;;;;;;;18.10;3.28;;;;;;;13.94;100.00;100050.69;5248194;28;20028;-73
2023/11/06 10:15:43;;;;;;;15.77;2.67;;;;;;;13.89;100.00;100050.50;5251415;28;20037;-73
2023/11/06 10:18:18;;;;;;;13.30;2.20;;;;;;;13.44;100.00;100058.31;5258609;28;20040;-73
2023/11/06 10:20:51;;;;;;;17.67;3.10;;;;;;;13.71;100.00;100060.03;5259021;28;20032;-73
2023/11/06 10:23:23;;;;;;;18.98;3.30;;;;;;;13.91;100.00;100057.34;5248599;28;20035;-73
2023/11/06 10:26:08;;;;;;;15.43;4.07;;;;;;;14.02;100.00;100052.38;5255121;28;20159;-73
2023/11/06 10:28:38;;;;;;;10.90;2.20;;;;;;;14.15;100.00;100052.34;5253271;28;20031;-74
2023/11/06 10:31:09;;;;;;;17.33;2.67;;;;;;;14.08;100.00;100065.00;5255139;28;20357;-73
2023/11/06 10:33:40;;;;;;;17.20;2.63;;;;;;;14.15;100.00;100066.66;5256794;28;20020;-73
2023/11/06 10:36:15;;;;;;;9.73;2.22;;;;;;;14.06;100.00;100069.81;5248884;28;20074;-74
2023/11/06 10:38:46;;;;;;;;;;;;;;;13.91;100.00;100070.00;5247893;28;20047;-73
2023/11/06 10:41:24;;;;;;;12.77;2.30;;;;;;;13.92;100.00;100074.34;5247607;28;19920;-73
2023/11/06 10:43:59;;;;;;;13.55;3.15;;;;;;;13.72;100.00;100077.84;5252638;28;20026;-73
2023/11/06 10:46:31;;;;;;;14.88;2.30;;;;;;;13.87;100.00;100066.88;5253736;28;20036;-75
2023/11/06 10:49:17;;;;;;;10.88;2.15;;;;;;;13.96;100.00;100071.03;5255165;28;20036;-75
2023/11/06 10:51:47;;;;;;;;;;;;;;;13.86;100.00;100072.50;5251787;28;20036;-74
2023/11/06 10:54:19;;;;;;;12.75;1.90;;;;;;;14.00;100.00;100066.03;5250112;28;20333;-73
2023/11/06 10:56:56;;;;;;;12.52;2.28;;;;;;;14.05;100.00;100058.16;5257118;28;20028;-73
2023/11/06 10:59:31;;;;;;;14.60;2.88;;;;;;;14.34;100.00;100056.91;5251592;28;20036;-73
2023/11/06 11:02:03;;;;;;;10.38;1.85;;;;;;;14.46;100.00;100051.69;5254132;28;20039;-73
2023/11/06 11:04:35;;;;;;;10.35;2.22;;;;;;;14.61;100.00;100057.72;5253356;28;20065;-75
2023/11/06 11:07:07;;;;;;;15.55;2.50;;;;;;;14.75;100.00;100043.13;5269338;28;20027;-73
2023/11/06 11:09:39;;;;;;;12.52;1.85;;;;;;;14.80;100.00;100042.47;5255207;28;20099;-73
2023/11/06 11:12:09;;;;;;;20.85;5.22;;;;;;;15.12;100.00;100031.75;5257608;28;20389;-73
2023/11/06 11:14:40;;;;;;;16.33;3.38;;;;;;;15.31;100.00;100024.56;5262728;28;20023;-73
2023/11/06 11:17:11;;;;;;;12.43;2.67;;;;;;;15.04;100.00;100038.22;5253899;28;20386;-74
2023/11/06 11:19:42;;;;;;;11.25;2.33;;;;;;;15.17;100.00;100050.84;5251377;28;20486;-73
2023/11/06 11:22:13;;;;;;;7.60;1.88;;;;;;;15.14;100.00;100053.97;5259631;28;20028;-73
2023/11/06 11:24:45;;;;;;;15.68;2.15;;;;;;;15.33;100.00;100052.22;5244276;28;20032;-73
2023/11/06 11:27:18;;;;;;;16.88;2.42;;;;;;;15.22;100.00;100043.75;5252847;28;20145;-74
2023/11/06 11:30:04;;;;;;;10.10;1.95;;;;;;;15.19;100.00;100049.59;5257357;28;20713;-73
2023/11/06 11:32:37;;;;;;;11.05;2.33;;;;;;;15.40;100.00;100048.41;5248366;28;20118;-73
2023/11/06 11:35:27;;;;;;;10.70;2.22;;;;;;;15.54;100.00;100060.81;5244889;28;20029;-74
2023/11/06 11:37:58;;;;;;;10.85;2.53;;;;;;;15.10;100.00;100050.03;5251097;28;20474;-74
2023/11/06 11:40:41;;;;;;;13.27;2.00;;;;;;;15.06;100.00;100055.06;5256098;28;20031;-74